sensor_id;sensor_type;location;lat;lon;timestamp;P1;durP1;ratioP1;P2;durP2;ratioP2
36315;SDS011;22343;50.820;2.666;2023-04-06T00:00:05;27.67;;;18.33;;
36315;SDS011;22343;50.820;2.666;2023-04-06T00:02:52;27.60;;;18.60;;
36315;SDS011;22343;50.820;2.666;2023-04-06T00:05:36;25.77;;;19.23;;
36315;SDS011;22343;50.820;2.666;2023-04-06T00:08:21;26.73;;;18.97;;
36315;SDS011;22343;50.820;2.666;2023-04-06T00:11:07;26.87;;;18.90;;
36315;SDS011;22343;50.820;2.666;2023-04-06T00:13:52;27.20;;;18.83;;
36315;SDS011;22343;50.820;2.666;2023-04-06T00:16:37;25.77;;;18.70;;
36315;SDS011;22343;50.820;2.666;2023-04-06T00:19:21;26.63;;;18.60;;
36315;SDS011;22343;50.820;2.666;2023-04-06T00:22:06;25.30;;;18.20;;
36315;SDS011;22343;50.820;2.666;2023-04-06T00:24:50;25.60;;;18.63;;
36315;SDS011;22343;50.820;2.666;2023-04-06T00:27:34;25.00;;;17.60;;
36315;SDS011;22343;50.820;2.666;2023-04-06T00:30:19;28.60;;;18.50;;
36315;SDS011;22343;50.820;2.666;2023-04-06T00:33:03;22.67;;;17.83;;
36315;SDS011;22343;50.820;2.666;2023-04-06T00:35:48;28.30;;;18.27;;
36315;SDS011;22343;50.820;2.666;2023-04-06T00:38:33;25.57;;;18.30;;
36315;SDS011;22343;50.820;2.666;2023-04-06T00:41:17;23.13;;;17.77;;
36315;SDS011;22343;50.820;2.666;2023-04-06T00:44:02;24.73;;;18.17;;
36315;SDS011;22343;50.820;2.666;2023-04-06T00:46:46;25.80;;;18.50;;
36315;SDS011;22343;50.820;2.666;2023-04-06T00:49:31;26.53;;;18.00;;
36315;SDS011;22343;50.820;2.666;2023-04-06T00:52:16;23.13;;;17.63;;
36315;SDS011;22343;50.820;2.666;2023-04-06T00:55:01;24.57;;;17.30;;
36315;SDS011;22343;50.820;2.666;2023-04-06T00:57:46;24.83;;;17.57;;
36315;SDS011;22343;50.820;2.666;2023-04-06T01:00:31;24.47;;;18.63;;
36315;SDS011;22343;50.820;2.666;2023-04-06T01:03:16;26.70;;;19.53;;
36315;SDS011;22343;50.820;2.666;2023-04-06T01:06:00;25.57;;;18.47;;
36315;SDS011;22343;50.820;2.666;2023-04-06T01:08:44;25.70;;;18.43;;
36315;SDS011;22343;50.820;2.666;2023-04-06T01:11:29;27.20;;;19.03;;
36315;SDS011;22343;50.820;2.666;2023-04-06T01:14:13;26.03;;;19.00;;
36315;SDS011;22343;50.820;2.666;2023-04-06T01:16:58;26.43;;;19.43;;
36315;SDS011;22343;50.820;2.666;2023-04-06T01:19:44;27.00;;;18.80;;
36315;SDS011;22343;50.820;2.666;2023-04-06T01:22:29;27.10;;;18.27;;
36315;SDS011;22343;50.820;2.666;2023-04-06T01:25:13;26.57;;;18.83;;
36315;SDS011;22343;50.820;2.666;2023-04-06T01:27:57;27.67;;;19.03;;
36315;SDS011;22343;50.820;2.666;2023-04-06T01:30:41;29.13;;;19.23;;
36315;SDS011;22343;50.820;2.666;2023-04-06T01:33:26;28.97;;;19.07;;
36315;SDS011;22343;50.820;2.666;2023-04-06T01:36:10;27.87;;;19.60;;
36315;SDS011;22343;50.820;2.666;2023-04-06T01:38:55;29.07;;;19.23;;
36315;SDS011;22343;50.820;2.666;2023-04-06T01:41:39;25.90;;;18.90;;
36315;SDS011;22343;50.820;2.666;2023-04-06T01:44:23;28.60;;;19.07;;
36315;SDS011;22343;50.820;2.666;2023-04-06T01:47:08;26.07;;;19.17;;
36315;SDS011;22343;50.820;2.666;2023-04-06T01:49:53;26.03;;;18.27;;
36315;SDS011;22343;50.820;2.666;2023-04-06T01:52:37;26.33;;;18.40;;
36315;SDS011;22343;50.820;2.666;2023-04-06T01:55:22;26.93;;;18.90;;
36315;SDS011;22343;50.820;2.666;2023-04-06T01:58:06;29.37;;;19.70;;
36315;SDS011;22343;50.820;2.666;2023-04-06T02:00:50;29.77;;;19.30;;
36315;SDS011;22343;50.820;2.666;2023-04-06T02:03:35;28.23;;;18.67;;
36315;SDS011;22343;50.820;2.666;2023-04-06T02:06:19;25.00;;;18.63;;
36315;SDS011;22343;50.820;2.666;2023-04-06T02:09:04;26.17;;;19.73;;
36315;SDS011;22343;50.820;2.666;2023-04-06T02:11:49;26.77;;;19.73;;
36315;SDS011;22343;50.820;2.666;2023-04-06T02:14:33;28.90;;;19.27;;
36315;SDS011;22343;50.820;2.666;2023-04-06T02:17:17;27.37;;;18.93;;
36315;SDS011;22343;50.820;2.666;2023-04-06T02:20:02;27.33;;;19.30;;
36315;SDS011;22343;50.820;2.666;2023-04-06T02:22:46;33.27;;;20.10;;
36315;SDS011;22343;50.820;2.666;2023-04-06T02:25:30;29.30;;;19.73;;
36315;SDS011;22343;50.820;2.666;2023-04-06T02:28:15;30.03;;;19.67;;
36315;SDS011;22343;50.820;2.666;2023-04-06T02:30:59;28.73;;;19.70;;
36315;SDS011;22343;50.820;2.666;2023-04-06T02:33:43;27.10;;;19.30;;
36315;SDS011;22343;50.820;2.666;2023-04-06T02:36:28;28.23;;;19.90;;
36315;SDS011;22343;50.820;2.666;2023-04-06T02:39:12;29.23;;;19.83;;
36315;SDS011;22343;50.820;2.666;2023-04-06T02:41:57;32.43;;;19.17;;
36315;SDS011;22343;50.820;2.666;2023-04-06T02:44:41;33.43;;;20.23;;
36315;SDS011;22343;50.820;2.666;2023-04-06T02:47:26;28.93;;;19.00;;
36315;SDS011;22343;50.820;2.666;2023-04-06T02:50:10;29.47;;;19.80;;
36315;SDS011;22343;50.820;2.666;2023-04-06T02:52:55;29.53;;;19.77;;
36315;SDS011;22343;50.820;2.666;2023-04-06T02:55:39;26.17;;;19.07;;
36315;SDS011;22343;50.820;2.666;2023-04-06T02:58:24;30.40;;;20.07;;
36315;SDS011;22343;50.820;2.666;2023-04-06T03:01:08;25.50;;;18.67;;
36315;SDS011;22343;50.820;2.666;2023-04-06T03:03:52;28.73;;;18.70;;
36315;SDS011;22343;50.820;2.666;2023-04-06T03:06:37;27.27;;;17.33;;
36315;SDS011;22343;50.820;2.666;2023-04-06T03:09:21;25.20;;;17.43;;
36315;SDS011;22343;50.820;2.666;2023-04-06T03:12:06;24.73;;;16.87;;
36315;SDS011;22343;50.820;2.666;2023-04-06T03:14:50;21.10;;;15.67;;
36315;SDS011;22343;50.820;2.666;2023-04-06T03:17:35;25.30;;;15.73;;
36315;SDS011;22343;50.820;2.666;2023-04-06T03:20:19;19.83;;;14.90;;
36315;SDS011;22343;50.820;2.666;2023-04-06T03:23:03;19.03;;;14.00;;
36315;SDS011;22343;50.820;2.666;2023-04-06T03:25:48;21.10;;;14.20;;
36315;SDS011;22343;50.820;2.666;2023-04-06T03:28:32;18.23;;;13.33;;
36315;SDS011;22343;50.820;2.666;2023-04-06T03:31:17;17.47;;;12.33;;
36315;SDS011;22343;50.820;2.666;2023-04-06T03:34:01;16.10;;;11.70;;
36315;SDS011;22343;50.820;2.666;2023-04-06T03:36:46;15.87;;;11.33;;
36315;SDS011;22343;50.820;2.666;2023-04-06T03:39:30;14.73;;;11.10;;
36315;SDS011;22343;50.820;2.666;2023-04-06T03:42:14;15.67;;;11.27;;
36315;SDS011;22343;50.820;2.666;2023-04-06T03:44:59;16.30;;;10.90;;
36315;SDS011;22343;50.820;2.666;2023-04-06T03:47:43;14.73;;;10.67;;
36315;SDS011;22343;50.820;2.666;2023-04-06T03:50:28;18.57;;;11.53;;
36315;SDS011;22343;50.820;2.666;2023-04-06T03:53:13;16.23;;;11.43;;
36315;SDS011;22343;50.820;2.666;2023-04-06T03:55:57;16.47;;;10.90;;
36315;SDS011;22343;50.820;2.666;2023-04-06T03:58:42;16.47;;;12.13;;
36315;SDS011;22343;50.820;2.666;2023-04-06T04:01:28;17.00;;;12.17;;
36315;SDS011;22343;50.820;2.666;2023-04-06T04:04:12;17.40;;;12.30;;
36315;SDS011;22343;50.820;2.666;2023-04-06T04:06:57;16.53;;;12.40;;
36315;SDS011;22343;50.820;2.666;2023-04-06T04:09:41;17.13;;;12.20;;
36315;SDS011;22343;50.820;2.666;2023-04-06T04:12:25;15.00;;;11.50;;
36315;SDS011;22343;50.820;2.666;2023-04-06T04:15:10;14.87;;;10.90;;
36315;SDS011;22343;50.820;2.666;2023-04-06T04:17:54;14.73;;;10.70;;
36315;SDS011;22343;50.820;2.666;2023-04-06T04:20:38;15.33;;;10.73;;
36315;SDS011;22343;50.820;2.666;2023-04-06T04:23:22;14.53;;;11.17;;
36315;SDS011;22343;50.820;2.666;2023-04-06T04:26:07;15.47;;;10.90;;
36315;SDS011;22343;50.820;2.666;2023-04-06T04:28:51;16.37;;;11.17;;
36315;SDS011;22343;50.820;2.666;2023-04-06T04:31:35;14.57;;;10.67;;
36315;SDS011;22343;50.820;2.666;2023-04-06T04:34:19;14.40;;;10.47;;
36315;SDS011;22343;50.820;2.666;2023-04-06T04:37:04;14.97;;;10.73;;
36315;SDS011;22343;50.820;2.666;2023-04-06T04:39:49;17.23;;;11.40;;
36315;SDS011;22343;50.820;2.666;2023-04-06T04:42:34;16.90;;;10.93;;
36315;SDS011;22343;50.820;2.666;2023-04-06T04:45:18;14.27;;;10.20;;
36315;SDS011;22343;50.820;2.666;2023-04-06T04:48:02;15.97;;;11.77;;
36315;SDS011;22343;50.820;2.666;2023-04-06T04:50:48;14.80;;;10.87;;
36315;SDS011;22343;50.820;2.666;2023-04-06T04:53:33;18.67;;;10.90;;
36315;SDS011;22343;50.820;2.666;2023-04-06T04:56:17;16.83;;;10.50;;
36315;SDS011;22343;50.820;2.666;2023-04-06T04:59:02;14.10;;;10.47;;
36315;SDS011;22343;50.820;2.666;2023-04-06T05:01:46;13.77;;;9.73;;
36315;SDS011;22343;50.820;2.666;2023-04-06T05:04:31;16.80;;;11.27;;
36315;SDS011;22343;50.820;2.666;2023-04-06T05:07:15;14.80;;;11.23;;
36315;SDS011;22343;50.820;2.666;2023-04-06T05:10:02;15.80;;;11.03;;
36315;SDS011;22343;50.820;2.666;2023-04-06T05:12:47;18.20;;;11.73;;
36315;SDS011;22343;50.820;2.666;2023-04-06T05:15:31;16.43;;;11.73;;
36315;SDS011;22343;50.820;2.666;2023-04-06T05:18:18;16.57;;;11.77;;
36315;SDS011;22343;50.820;2.666;2023-04-06T05:21:02;17.33;;;11.37;;
36315;SDS011;22343;50.820;2.666;2023-04-06T05:23:48;16.37;;;12.40;;
36315;SDS011;22343;50.820;2.666;2023-04-06T05:26:32;17.27;;;11.10;;
36315;SDS011;22343;50.820;2.666;2023-04-06T05:29:16;15.67;;;11.00;;
36315;SDS011;22343;50.820;2.666;2023-04-06T05:32:02;16.50;;;11.80;;
36315;SDS011;22343;50.820;2.666;2023-04-06T05:34:46;17.13;;;11.33;;
36315;SDS011;22343;50.820;2.666;2023-04-06T05:37:32;16.40;;;11.50;;
36315;SDS011;22343;50.820;2.666;2023-04-06T05:40:16;16.63;;;11.60;;
36315;SDS011;22343;50.820;2.666;2023-04-06T05:43:01;16.40;;;11.47;;
36315;SDS011;22343;50.820;2.666;2023-04-06T05:45:46;17.73;;;11.60;;
36315;SDS011;22343;50.820;2.666;2023-04-06T05:48:31;17.73;;;11.13;;
36315;SDS011;22343;50.820;2.666;2023-04-06T05:51:15;16.63;;;11.77;;
36315;SDS011;22343;50.820;2.666;2023-04-06T05:54:00;15.33;;;10.87;;
36315;SDS011;22343;50.820;2.666;2023-04-06T05:56:44;14.77;;;10.63;;
36315;SDS011;22343;50.820;2.666;2023-04-06T05:59:31;15.47;;;11.17;;
36315;SDS011;22343;50.820;2.666;2023-04-06T06:02:16;13.83;;;10.33;;
36315;SDS011;22343;50.820;2.666;2023-04-06T06:05:00;15.50;;;11.10;;
36315;SDS011;22343;50.820;2.666;2023-04-06T06:07:44;14.70;;;10.57;;
36315;SDS011;22343;50.820;2.666;2023-04-06T06:10:29;14.43;;;10.53;;
36315;SDS011;22343;50.820;2.666;2023-04-06T06:13:13;16.17;;;11.10;;
36315;SDS011;22343;50.820;2.666;2023-04-06T06:15:57;16.73;;;10.90;;
36315;SDS011;22343;50.820;2.666;2023-04-06T06:18:42;16.53;;;11.37;;
36315;SDS011;22343;50.820;2.666;2023-04-06T06:21:26;17.03;;;11.33;;
36315;SDS011;22343;50.820;2.666;2023-04-06T06:24:11;16.43;;;11.33;;
36315;SDS011;22343;50.820;2.666;2023-04-06T06:26:55;15.37;;;11.00;;
36315;SDS011;22343;50.820;2.666;2023-04-06T06:29:39;19.93;;;11.87;;
36315;SDS011;22343;50.820;2.666;2023-04-06T06:32:24;18.13;;;12.17;;
36315;SDS011;22343;50.820;2.666;2023-04-06T06:35:09;17.53;;;11.63;;
36315;SDS011;22343;50.820;2.666;2023-04-06T06:37:53;17.67;;;12.57;;
36315;SDS011;22343;50.820;2.666;2023-04-06T06:40:39;16.83;;;11.97;;
36315;SDS011;22343;50.820;2.666;2023-04-06T06:43:24;20.23;;;12.80;;
36315;SDS011;22343;50.820;2.666;2023-04-06T06:46:08;19.20;;;12.80;;
36315;SDS011;22343;50.820;2.666;2023-04-06T06:48:53;22.63;;;13.03;;
36315;SDS011;22343;50.820;2.666;2023-04-06T06:51:37;21.07;;;14.10;;
36315;SDS011;22343;50.820;2.666;2023-04-06T06:54:22;18.77;;;13.43;;
36315;SDS011;22343;50.820;2.666;2023-04-06T06:57:06;20.63;;;13.73;;
36315;SDS011;22343;50.820;2.666;2023-04-06T06:59:50;20.30;;;13.73;;
36315;SDS011;22343;50.820;2.666;2023-04-06T07:02:35;18.90;;;13.47;;
36315;SDS011;22343;50.820;2.666;2023-04-06T07:05:20;21.93;;;14.90;;
36315;SDS011;22343;50.820;2.666;2023-04-06T07:08:04;21.67;;;15.17;;
36315;SDS011;22343;50.820;2.666;2023-04-06T07:10:52;21.73;;;14.87;;
36315;SDS011;22343;50.820;2.666;2023-04-06T07:13:36;22.87;;;14.40;;
36315;SDS011;22343;50.820;2.666;2023-04-06T07:16:21;25.17;;;16.60;;
36315;SDS011;22343;50.820;2.666;2023-04-06T07:19:05;21.60;;;15.00;;
36315;SDS011;22343;50.820;2.666;2023-04-06T07:21:50;25.27;;;15.97;;
36315;SDS011;22343;50.820;2.666;2023-04-06T07:24:34;28.90;;;16.00;;
36315;SDS011;22343;50.820;2.666;2023-04-06T07:27:18;24.17;;;16.40;;
36315;SDS011;22343;50.820;2.666;2023-04-06T07:30:03;25.97;;;17.93;;
36315;SDS011;22343;50.820;2.666;2023-04-06T07:32:48;23.17;;;16.73;;
36315;SDS011;22343;50.820;2.666;2023-04-06T07:35:32;27.13;;;16.47;;
36315;SDS011;22343;50.820;2.666;2023-04-06T07:38:18;24.70;;;16.50;;
36315;SDS011;22343;50.820;2.666;2023-04-06T07:41:02;23.43;;;16.60;;
36315;SDS011;22343;50.820;2.666;2023-04-06T07:43:47;26.33;;;17.90;;
36315;SDS011;22343;50.820;2.666;2023-04-06T07:46:32;25.97;;;17.37;;
36315;SDS011;22343;50.820;2.666;2023-04-06T07:49:16;24.73;;;16.50;;
36315;SDS011;22343;50.820;2.666;2023-04-06T07:52:01;22.90;;;15.27;;
36315;SDS011;22343;50.820;2.666;2023-04-06T07:54:47;22.03;;;16.23;;
36315;SDS011;22343;50.820;2.666;2023-04-06T07:57:33;24.27;;;16.43;;
36315;SDS011;22343;50.820;2.666;2023-04-06T08:00:18;24.80;;;16.77;;
36315;SDS011;22343;50.820;2.666;2023-04-06T08:03:02;22.47;;;16.23;;
36315;SDS011;22343;50.820;2.666;2023-04-06T08:05:47;24.87;;;16.60;;
36315;SDS011;22343;50.820;2.666;2023-04-06T08:08:31;24.43;;;17.03;;
36315;SDS011;22343;50.820;2.666;2023-04-06T08:11:15;24.40;;;17.50;;
36315;SDS011;22343;50.820;2.666;2023-04-06T08:14:00;22.57;;;16.30;;
36315;SDS011;22343;50.820;2.666;2023-04-06T08:16:44;21.40;;;16.17;;
36315;SDS011;22343;50.820;2.666;2023-04-06T08:19:29;20.17;;;15.53;;
36315;SDS011;22343;50.820;2.666;2023-04-06T08:22:13;22.20;;;16.40;;
36315;SDS011;22343;50.820;2.666;2023-04-06T08:24:57;23.87;;;16.83;;
36315;SDS011;22343;50.820;2.666;2023-04-06T08:27:42;25.73;;;17.40;;
36315;SDS011;22343;50.820;2.666;2023-04-06T08:30:26;25.63;;;18.20;;
36315;SDS011;22343;50.820;2.666;2023-04-06T08:33:11;23.80;;;16.33;;
36315;SDS011;22343;50.820;2.666;2023-04-06T08:35:55;25.57;;;17.90;;
36315;SDS011;22343;50.820;2.666;2023-04-06T08:38:40;24.00;;;17.97;;
36315;SDS011;22343;50.820;2.666;2023-04-06T08:41:26;22.83;;;17.63;;
36315;SDS011;22343;50.820;2.666;2023-04-06T08:44:11;26.17;;;17.87;;
36315;SDS011;22343;50.820;2.666;2023-04-06T08:46:57;25.57;;;18.40;;
36315;SDS011;22343;50.820;2.666;2023-04-06T08:49:41;21.90;;;16.67;;
36315;SDS011;22343;50.820;2.666;2023-04-06T08:52:26;25.37;;;18.63;;
36315;SDS011;22343;50.820;2.666;2023-04-06T08:55:10;24.63;;;18.40;;
36315;SDS011;22343;50.820;2.666;2023-04-06T08:57:55;25.97;;;17.70;;
36315;SDS011;22343;50.820;2.666;2023-04-06T09:00:40;24.90;;;18.20;;
36315;SDS011;22343;50.820;2.666;2023-04-06T09:03:25;27.70;;;19.00;;
36315;SDS011;22343;50.820;2.666;2023-04-06T09:06:10;24.67;;;17.93;;
36315;SDS011;22343;50.820;2.666;2023-04-06T09:08:56;25.60;;;18.17;;
36315;SDS011;22343;50.820;2.666;2023-04-06T09:11:42;25.53;;;18.00;;
36315;SDS011;22343;50.820;2.666;2023-04-06T09:14:35;23.37;;;17.27;;
36315;SDS011;22343;50.820;2.666;2023-04-06T09:17:23;22.87;;;16.67;;
36315;SDS011;22343;50.820;2.666;2023-04-06T09:20:09;23.87;;;16.80;;
36315;SDS011;22343;50.820;2.666;2023-04-06T09:22:55;25.00;;;17.93;;
36315;SDS011;22343;50.820;2.666;2023-04-06T09:25:39;26.53;;;17.83;;
36315;SDS011;22343;50.820;2.666;2023-04-06T09:28:23;23.93;;;16.43;;
36315;SDS011;22343;50.820;2.666;2023-04-06T09:31:08;23.57;;;17.57;;
36315;SDS011;22343;50.820;2.666;2023-04-06T09:33:54;23.70;;;16.50;;
36315;SDS011;22343;50.820;2.666;2023-04-06T09:36:38;21.53;;;15.90;;
36315;SDS011;22343;50.820;2.666;2023-04-06T09:39:24;21.87;;;16.63;;
36315;SDS011;22343;50.820;2.666;2023-04-06T09:42:10;20.87;;;15.43;;
36315;SDS011;22343;50.820;2.666;2023-04-06T09:44:55;22.40;;;15.23;;
36315;SDS011;22343;50.820;2.666;2023-04-06T09:47:40;19.93;;;15.53;;
36315;SDS011;22343;50.820;2.666;2023-04-06T09:50:27;19.63;;;14.00;;
36315;SDS011;22343;50.820;2.666;2023-04-06T09:53:13;19.77;;;13.30;;
36315;SDS011;22343;50.820;2.666;2023-04-06T09:55:57;18.47;;;13.83;;
36315;SDS011;22343;50.820;2.666;2023-04-06T09:58:46;16.80;;;12.87;;
36315;SDS011;22343;50.820;2.666;2023-04-06T10:01:33;17.63;;;13.17;;
36315;SDS011;22343;50.820;2.666;2023-04-06T10:07:05;16.30;;;12.67;;
36315;SDS011;22343;50.820;2.666;2023-04-06T10:09:50;15.17;;;11.73;;
36315;SDS011;22343;50.820;2.666;2023-04-06T10:12:37;14.73;;;11.23;;
36315;SDS011;22343;50.820;2.666;2023-04-06T10:15:22;13.83;;;10.57;;
36315;SDS011;22343;50.820;2.666;2023-04-06T10:18:07;12.80;;;10.13;;
36315;SDS011;22343;50.820;2.666;2023-04-06T10:23:52;13.87;;;10.63;;
36315;SDS011;22343;50.820;2.666;2023-04-06T10:26:42;12.83;;;9.77;;
36315;SDS011;22343;50.820;2.666;2023-04-06T10:29:26;11.83;;;9.93;;
36315;SDS011;22343;50.820;2.666;2023-04-06T10:32:11;13.00;;;9.50;;
36315;SDS011;22343;50.820;2.666;2023-04-06T10:35:04;11.77;;;9.87;;
36315;SDS011;22343;50.820;2.666;2023-04-06T10:37:53;11.20;;;8.90;;
36315;SDS011;22343;50.820;2.666;2023-04-06T10:40:45;10.27;;;8.43;;
36315;SDS011;22343;50.820;2.666;2023-04-06T10:43:36;10.10;;;8.47;;
36315;SDS011;22343;50.820;2.666;2023-04-06T10:46:26;9.87;;;7.80;;
36315;SDS011;22343;50.820;2.666;2023-04-06T10:49:11;10.33;;;8.07;;
36315;SDS011;22343;50.820;2.666;2023-04-06T10:51:56;10.23;;;7.83;;
36315;SDS011;22343;50.820;2.666;2023-04-06T10:54:41;9.53;;;7.97;;
36315;SDS011;22343;50.820;2.666;2023-04-06T10:57:28;8.53;;;7.20;;
36315;SDS011;22343;50.820;2.666;2023-04-06T11:00:15;8.47;;;7.13;;
36315;SDS011;22343;50.820;2.666;2023-04-06T11:02:59;8.83;;;7.23;;
36315;SDS011;22343;50.820;2.666;2023-04-06T11:05:45;7.50;;;6.10;;
36315;SDS011;22343;50.820;2.666;2023-04-06T11:08:31;7.53;;;6.47;;
36315;SDS011;22343;50.820;2.666;2023-04-06T11:11:17;7.13;;;5.97;;
36315;SDS011;22343;50.820;2.666;2023-04-06T11:14:04;7.27;;;5.57;;
36315;SDS011;22343;50.820;2.666;2023-04-06T11:16:49;6.50;;;5.60;;
36315;SDS011;22343;50.820;2.666;2023-04-06T11:19:34;6.80;;;5.00;;
36315;SDS011;22343;50.820;2.666;2023-04-06T11:22:19;6.17;;;5.20;;
36315;SDS011;22343;50.820;2.666;2023-04-06T11:25:04;5.33;;;4.73;;
36315;SDS011;22343;50.820;2.666;2023-04-06T11:27:52;5.10;;;4.50;;
36315;SDS011;22343;50.820;2.666;2023-04-06T11:30:36;5.70;;;4.13;;
36315;SDS011;22343;50.820;2.666;2023-04-06T11:33:21;5.33;;;4.17;;
36315;SDS011;22343;50.820;2.666;2023-04-06T11:36:06;5.80;;;3.97;;
36315;SDS011;22343;50.820;2.666;2023-04-06T11:38:51;4.90;;;3.87;;
36315;SDS011;22343;50.820;2.666;2023-04-06T11:41:36;5.10;;;3.80;;
36315;SDS011;22343;50.820;2.666;2023-04-06T11:47:17;7.07;;;3.50;;
36315;SDS011;22343;50.820;2.666;2023-04-06T11:50:09;5.50;;;3.10;;
36315;SDS011;22343;50.820;2.666;2023-04-06T11:52:58;3.43;;;2.70;;
36315;SDS011;22343;50.820;2.666;2023-04-06T11:55:49;6.10;;;3.30;;
36315;SDS011;22343;50.820;2.666;2023-04-06T11:58:34;4.57;;;2.90;;
36315;SDS011;22343;50.820;2.666;2023-04-06T12:01:18;4.97;;;3.23;;
36315;SDS011;22343;50.820;2.666;2023-04-06T12:04:03;5.80;;;3.10;;
36315;SDS011;22343;50.820;2.666;2023-04-06T12:06:47;4.93;;;3.20;;
36315;SDS011;22343;50.820;2.666;2023-04-06T12:09:32;5.90;;;2.90;;
36315;SDS011;22343;50.820;2.666;2023-04-06T12:12:18;5.37;;;3.23;;
36315;SDS011;22343;50.820;2.666;2023-04-06T12:15:02;8.27;;;3.70;;
36315;SDS011;22343;50.820;2.666;2023-04-06T12:17:47;7.23;;;3.87;;
36315;SDS011;22343;50.820;2.666;2023-04-06T12:20:33;6.00;;;4.00;;
36315;SDS011;22343;50.820;2.666;2023-04-06T12:23:18;7.03;;;4.00;;
36315;SDS011;22343;50.820;2.666;2023-04-06T12:26:03;5.90;;;4.10;;
36315;SDS011;22343;50.820;2.666;2023-04-06T12:28:47;5.97;;;3.50;;
36315;SDS011;22343;50.820;2.666;2023-04-06T12:31:32;9.67;;;4.30;;
36315;SDS011;22343;50.820;2.666;2023-04-06T12:34:22;7.90;;;3.50;;
36315;SDS011;22343;50.820;2.666;2023-04-06T12:37:06;7.23;;;3.37;;
36315;SDS011;22343;50.820;2.666;2023-04-06T12:39:52;8.10;;;3.87;;
36315;SDS011;22343;50.820;2.666;2023-04-06T12:42:36;10.50;;;3.97;;
36315;SDS011;22343;50.820;2.666;2023-04-06T12:45:22;9.07;;;3.53;;
36315;SDS011;22343;50.820;2.666;2023-04-06T12:48:07;9.97;;;3.60;;
36315;SDS011;22343;50.820;2.666;2023-04-06T12:50:55;11.20;;;4.13;;
36315;SDS011;22343;50.820;2.666;2023-04-06T12:53:41;11.37;;;4.77;;
36315;SDS011;22343;50.820;2.666;2023-04-06T12:56:25;11.30;;;4.40;;
36315;SDS011;22343;50.820;2.666;2023-04-06T12:59:10;10.57;;;4.60;;
36315;SDS011;22343;50.820;2.666;2023-04-06T13:01:54;9.77;;;4.53;;
36315;SDS011;22343;50.820;2.666;2023-04-06T13:04:39;13.23;;;4.40;;
36315;SDS011;22343;50.820;2.666;2023-04-06T13:07:23;9.20;;;4.30;;
36315;SDS011;22343;50.820;2.666;2023-04-06T13:10:07;12.27;;;4.50;;
36315;SDS011;22343;50.820;2.666;2023-04-06T13:12:52;11.50;;;4.60;;
36315;SDS011;22343;50.820;2.666;2023-04-06T13:15:36;12.10;;;4.50;;
36315;SDS011;22343;50.820;2.666;2023-04-06T13:18:21;11.10;;;4.77;;
36315;SDS011;22343;50.820;2.666;2023-04-06T13:21:06;12.53;;;4.20;;
36315;SDS011;22343;50.820;2.666;2023-04-06T13:23:51;9.47;;;3.60;;
36315;SDS011;22343;50.820;2.666;2023-04-06T13:26:35;11.33;;;3.60;;
36315;SDS011;22343;50.820;2.666;2023-04-06T13:29:20;9.13;;;4.03;;
36315;SDS011;22343;50.820;2.666;2023-04-06T13:32:04;10.27;;;4.13;;
36315;SDS011;22343;50.820;2.666;2023-04-06T13:34:49;9.40;;;4.43;;
36315;SDS011;22343;50.820;2.666;2023-04-06T13:37:34;14.13;;;4.03;;
36315;SDS011;22343;50.820;2.666;2023-04-06T13:40:19;11.33;;;4.50;;
36315;SDS011;22343;50.820;2.666;2023-04-06T13:43:04;13.73;;;4.93;;
36315;SDS011;22343;50.820;2.666;2023-04-06T13:45:53;14.93;;;5.37;;
36315;SDS011;22343;50.820;2.666;2023-04-06T13:48:40;10.27;;;4.87;;
36315;SDS011;22343;50.820;2.666;2023-04-06T13:51:25;9.97;;;4.30;;
36315;SDS011;22343;50.820;2.666;2023-04-06T13:54:10;11.67;;;4.40;;
36315;SDS011;22343;50.820;2.666;2023-04-06T13:56:54;10.93;;;4.30;;
36315;SDS011;22343;50.820;2.666;2023-04-06T13:59:40;13.33;;;4.40;;
36315;SDS011;22343;50.820;2.666;2023-04-06T14:02:24;10.97;;;4.30;;
36315;SDS011;22343;50.820;2.666;2023-04-06T14:05:11;10.40;;;4.37;;
36315;SDS011;22343;50.820;2.666;2023-04-06T14:07:55;11.50;;;4.40;;
36315;SDS011;22343;50.820;2.666;2023-04-06T14:10:40;10.50;;;4.57;;
36315;SDS011;22343;50.820;2.666;2023-04-06T14:13:26;11.40;;;4.07;;
36315;SDS011;22343;50.820;2.666;2023-04-06T14:16:11;9.63;;;4.37;;
36315;SDS011;22343;50.820;2.666;2023-04-06T14:18:56;13.23;;;4.90;;
36315;SDS011;22343;50.820;2.666;2023-04-06T14:21:41;13.43;;;4.83;;
36315;SDS011;22343;50.820;2.666;2023-04-06T14:24:27;10.97;;;4.40;;
36315;SDS011;22343;50.820;2.666;2023-04-06T14:27:11;14.37;;;4.87;;
36315;SDS011;22343;50.820;2.666;2023-04-06T14:29:56;11.83;;;4.13;;
36315;SDS011;22343;50.820;2.666;2023-04-06T14:32:41;11.17;;;3.87;;
36315;SDS011;22343;50.820;2.666;2023-04-06T14:35:25;12.33;;;4.20;;
36315;SDS011;22343;50.820;2.666;2023-04-06T14:38:12;11.87;;;4.80;;
36315;SDS011;22343;50.820;2.666;2023-04-06T14:40:56;11.03;;;4.07;;
36315;SDS011;22343;50.820;2.666;2023-04-06T14:43:40;9.87;;;4.10;;
36315;SDS011;22343;50.820;2.666;2023-04-06T14:46:24;8.93;;;4.40;;
36315;SDS011;22343;50.820;2.666;2023-04-06T14:49:10;9.87;;;3.87;;
36315;SDS011;22343;50.820;2.666;2023-04-06T14:51:54;14.23;;;4.60;;
36315;SDS011;22343;50.820;2.666;2023-04-06T14:54:39;9.97;;;4.20;;
36315;SDS011;22343;50.820;2.666;2023-04-06T14:57:24;10.67;;;5.13;;
36315;SDS011;22343;50.820;2.666;2023-04-06T15:00:08;10.30;;;4.20;;
36315;SDS011;22343;50.820;2.666;2023-04-06T15:02:53;9.40;;;4.00;;
36315;SDS011;22343;50.820;2.666;2023-04-06T15:05:38;12.00;;;4.47;;
36315;SDS011;22343;50.820;2.666;2023-04-06T15:08:22;10.47;;;4.33;;
36315;SDS011;22343;50.820;2.666;2023-04-06T15:11:07;8.10;;;4.23;;
36315;SDS011;22343;50.820;2.666;2023-04-06T15:13:51;12.20;;;4.70;;
36315;SDS011;22343;50.820;2.666;2023-04-06T15:16:36;16.60;;;5.03;;
36315;SDS011;22343;50.820;2.666;2023-04-06T15:19:20;12.13;;;4.73;;
36315;SDS011;22343;50.820;2.666;2023-04-06T15:22:05;11.03;;;4.63;;
36315;SDS011;22343;50.820;2.666;2023-04-06T15:24:50;13.80;;;4.87;;
36315;SDS011;22343;50.820;2.666;2023-04-06T15:27:34;12.97;;;5.10;;
36315;SDS011;22343;50.820;2.666;2023-04-06T15:30:18;10.20;;;4.23;;
36315;SDS011;22343;50.820;2.666;2023-04-06T15:33:03;13.60;;;4.80;;
36315;SDS011;22343;50.820;2.666;2023-04-06T15:35:49;12.43;;;4.27;;
36315;SDS011;22343;50.820;2.666;2023-04-06T15:38:33;14.67;;;4.57;;
36315;SDS011;22343;50.820;2.666;2023-04-06T15:41:17;13.93;;;4.53;;
36315;SDS011;22343;50.820;2.666;2023-04-06T15:44:02;11.83;;;4.90;;
36315;SDS011;22343;50.820;2.666;2023-04-06T15:46:47;12.17;;;4.50;;
36315;SDS011;22343;50.820;2.666;2023-04-06T15:49:32;15.30;;;5.70;;
36315;SDS011;22343;50.820;2.666;2023-04-06T15:52:16;18.07;;;5.30;;
36315;SDS011;22343;50.820;2.666;2023-04-06T15:55:04;14.30;;;4.87;;
36315;SDS011;22343;50.820;2.666;2023-04-06T15:57:50;15.50;;;4.80;;
36315;SDS011;22343;50.820;2.666;2023-04-06T16:00:34;11.67;;;4.90;;
36315;SDS011;22343;50.820;2.666;2023-04-06T16:03:19;9.80;;;4.30;;
36315;SDS011;22343;50.820;2.666;2023-04-06T16:06:04;13.93;;;4.77;;
36315;SDS011;22343;50.820;2.666;2023-04-06T16:08:48;10.93;;;4.40;;
36315;SDS011;22343;50.820;2.666;2023-04-06T16:11:33;13.70;;;4.47;;
36315;SDS011;22343;50.820;2.666;2023-04-06T16:14:17;13.40;;;4.40;;
36315;SDS011;22343;50.820;2.666;2023-04-06T16:17:01;11.03;;;4.17;;
36315;SDS011;22343;50.820;2.666;2023-04-06T16:19:45;11.70;;;4.70;;